createdAt,value
2023-11-18T00:00:25.618Z,98175.25
2023-11-18T00:01:36.293Z,98168.53
2023-11-18T00:02:39.846Z,98161.84
2023-11-18T00:03:42.610Z,98164.19
2023-11-18T00:04:45.279Z,98164.66
2023-11-18T00:05:47.826Z,98178.28
2023-11-18T00:06:50.633Z,98166.53
2023-11-18T00:07:53.297Z,98161.91
2023-11-18T00:08:56.269Z,98165.75
2023-11-18T00:09:58.864Z,98168.34
2023-11-18T00:11:01.668Z,98166.47
2023-11-18T00:12:05.367Z,98177.09
2023-11-18T00:13:08.288Z,98184.53
2023-11-18T00:14:14.497Z,98177.09
2023-11-18T00:15:19.086Z,98181.31
2023-11-18T00:16:21.802Z,98182.78
2023-11-18T00:17:24.417Z,98172.22
2023-11-18T00:18:27.080Z,98185.53
2023-11-18T00:19:29.680Z,98188.53
2023-11-18T00:20:32.673Z,98183.66
2023-11-18T00:21:37.270Z,98188.47
2023-11-18T00:22:42.678Z,98188.31
2023-11-18T00:23:46.776Z,98192.53
2023-11-18T00:24:49.476Z,98200.75
2023-11-18T00:25:53.931Z,98194.41
2023-11-18T00:26:56.612Z,98196.38
2023-11-18T00:27:59.186Z,98195.59
2023-11-18T00:29:01.911Z,98189.63
2023-11-18T00:30:06.288Z,98199.41
2023-11-18T00:31:09.081Z,98204.81
2023-11-18T00:32:11.924Z,98198.00
2023-11-18T00:33:14.699Z,98202.66
2023-11-18T00:34:18.962Z,98206.81
2023-11-18T00:35:21.592Z,98206.69
2023-11-18T00:36:24.177Z,98212.22
2023-11-18T00:37:26.949Z,98212.34
2023-11-18T00:38:29.572Z,98209.69
2023-11-18T00:39:32.248Z,98209.72
2023-11-18T00:40:36.472Z,98217.94
2023-11-18T00:41:39.280Z,98201.69
2023-11-18T00:42:42.003Z,98189.22
2023-11-18T00:43:44.662Z,98211.22
2023-11-18T00:44:47.429Z,98208.69
2023-11-18T00:45:50.163Z,98210.63
2023-11-18T00:46:53.331Z,98211.16
2023-11-18T00:47:56.539Z,98216.63
2023-11-18T00:48:59.290Z,98203.81
2023-11-18T00:50:03.896Z,98213.19
2023-11-18T00:51:09.869Z,98212.34
2023-11-18T00:52:13.086Z,98212.34
2023-11-18T00:53:15.690Z,98213.41
2023-11-18T00:54:18.409Z,98212.72
2023-11-18T00:55:21.241Z,98213.75
2023-11-18T00:56:23.897Z,98215.44
2023-11-18T00:57:26.581Z,98214.59
2023-11-18T00:58:30.214Z,98216.59
2023-11-18T00:59:32.978Z,98224.22
2023-11-18T01:00:35.757Z,98213.88
2023-11-18T01:01:38.556Z,98226.53
2023-11-18T01:02:44.834Z,98225.97
2023-11-18T01:03:47.670Z,98224.22
2023-11-18T01:04:50.366Z,98224.84
2023-11-18T01:05:53.046Z,98225.97
2023-11-18T01:06:55.852Z,98227.81
2023-11-18T01:07:59.377Z,98226.25
2023-11-18T01:09:02.125Z,98232.91
2023-11-18T01:10:09.559Z,98216.16
2023-11-18T01:11:12.190Z,98229.56
2023-11-18T01:12:15.032Z,98230.16
2023-11-18T01:13:17.854Z,98234.91
2023-11-18T01:14:20.569Z,98225.31
2023-11-18T01:15:24.406Z,98228.94
2023-11-18T01:16:27.119Z,98241.84
2023-11-18T01:17:30.534Z,98237.16
2023-11-18T01:18:33.227Z,98243.78
2023-11-18T01:19:37.609Z,98235.22
2023-11-18T01:20:40.252Z,98237.94
2023-11-18T01:21:43.095Z,98235.22
2023-11-18T01:22:46.910Z,98234.06
2023-11-18T01:23:50.134Z,98225.47
2023-11-18T01:24:52.734Z,98234.97
2023-11-18T01:25:57.172Z,98237.56
2023-11-18T01:27:03.133Z,98231.34
2023-11-18T01:28:05.766Z,98234.84
2023-11-18T01:29:08.417Z,98233.41
2023-11-18T01:30:11.828Z,98228.16
2023-11-18T01:31:14.752Z,98232.88
2023-11-18T01:32:18.463Z,98237.84
2023-11-18T01:33:21.118Z,98234.78
2023-11-18T01:34:23.927Z,98232.50
2023-11-18T01:35:27.975Z,98236.19
2023-11-18T01:36:31.742Z,98232.00
2023-11-18T01:37:34.337Z,98234.97
2023-11-18T01:38:41.238Z,98232.69
2023-11-18T01:39:44.249Z,98233.66
2023-11-18T01:40:46.926Z,98224.59
2023-11-18T01:41:50.498Z,98231.59
2023-11-18T01:42:53.412Z,98230.53
2023-11-18T01:43:56.325Z,98221.78
2023-11-18T01:45:00.651Z,98221.97
2023-11-18T01:46:11.392Z,98231.22
2023-11-18T01:47:15.151Z,98224.72
2023-11-18T01:48:18.565Z,98225.31
2023-11-18T01:49:22.317Z,98236.41
2023-11-18T01:50:25.256Z,98231.34
2023-11-18T01:51:27.913Z,98225.31
2023-11-18T01:52:31.780Z,98236.66
2023-11-18T01:53:38.317Z,98229.50
2023-11-18T01:54:41.839Z,98224.72
2023-11-18T01:55:44.506Z,98232.78
2023-11-18T01:56:49.905Z,98229.50
2023-11-18T01:57:52.573Z,98227.25
2023-11-18T01:58:55.686Z,98225.59
2023-11-18T01:59:59.641Z,98238.66
2023-11-18T02:01:03.459Z,98239.41
2023-11-18T02:02:06.612Z,98224.31
2023-11-18T02:03:10.783Z,98236.13
2023-11-18T02:04:14.077Z,98234.25
2023-11-18T02:05:19.389Z,98232.50
2023-11-18T02:06:22.664Z,98224.69
2023-11-18T02:07:25.547Z,98234.25
2023-11-18T02:08:29.557Z,98235.22
2023-11-18T02:09:32.514Z,98244.97
2023-11-18T02:10:41.844Z,98240.88
2023-11-18T02:11:58.522Z,98241.81
2023-11-18T02:13:27.657Z,98250.09
2023-11-18T02:14:34.479Z,98248.69
2023-11-18T02:15:39.859Z,98244.19
2023-11-18T02:16:45.968Z,98244.69
2023-11-18T02:17:53.247Z,98247.13
2023-11-18T02:18:57.136Z,98241.47
2023-11-18T02:20:00.763Z,98244.47
2023-11-18T02:21:05.263Z,98254.97
2023-11-18T02:22:11.305Z,98260.06
2023-11-18T02:23:14.203Z,98248.19
2023-11-18T02:24:27.937Z,98258.28
2023-11-18T02:25:34.280Z,98247.84
2023-11-18T02:26:36.997Z,98260.31
2023-11-18T02:27:39.855Z,98263.16
2023-11-18T02:28:42.546Z,98252.06
2023-11-18T02:29:50.088Z,98252.19
2023-11-18T02:31:05.213Z,98260.66
2023-11-18T02:32:40.824Z,98260.03
2023-11-18T02:34:16.920Z,98263.16
2023-11-18T02:35:27.566Z,98255.22
2023-11-18T02:36:40.617Z,98267.81
2023-11-18T02:37:48.542Z,98267.13
2023-11-18T02:38:56.123Z,98271.72
2023-11-18T02:40:15.575Z,98269.19
2023-11-18T02:41:19.871Z,98279.41
2023-11-18T02:42:24.167Z,98273.72
2023-11-18T02:43:31.724Z,98271.13
2023-11-18T02:44:36.698Z,98277.31
2023-11-18T02:45:41.388Z,98269.16
2023-11-18T02:46:44.985Z,98272.44
2023-11-18T02:47:48.898Z,98270.16
2023-11-18T02:48:52.813Z,98277.38
2023-11-18T02:50:06.544Z,98277.00
2023-11-18T02:51:09.555Z,98274.34
2023-11-18T02:52:12.265Z,98271.34
2023-11-18T02:53:14.943Z,98277.56
2023-11-18T02:54:17.753Z,98276.69
2023-11-18T02:55:23.762Z,98277.84
2023-11-18T02:56:27.487Z,98273.56
2023-11-18T02:57:31.356Z,98278.44
2023-11-18T02:58:34.608Z,98276.41
2023-11-18T02:59:37.237Z,98276.69
2023-11-18T03:00:39.850Z,98284.13
2023-11-18T03:01:44.453Z,98273.66
2023-11-18T03:02:49.218Z,98284.56
2023-11-18T03:03:52.159Z,98283.59
2023-11-18T03:04:55.045Z,98287.78
2023-11-18T03:05:58.041Z,98293.53
2023-11-18T03:07:01.146Z,98286.41
2023-11-18T03:08:07.559Z,98283.50
2023-11-18T03:09:11.734Z,98298.09
2023-11-18T03:10:22.040Z,98290.41
2023-11-18T03:11:25.317Z,98291.97
2023-11-18T03:12:29.225Z,98292.66
2023-11-18T03:13:33.614Z,98302.09
2023-11-18T03:14:36.445Z,98289.44
2023-11-18T03:15:39.264Z,98294.72
2023-11-18T03:16:42.015Z,98298.97
2023-11-18T03:17:51.061Z,98302.09
2023-11-18T03:18:53.930Z,98300.03
2023-11-18T03:19:56.656Z,98305.59
2023-11-18T03:21:01.599Z,98305.59
2023-11-18T03:22:04.393Z,98296.25
2023-11-18T03:23:08.878Z,98286.59
2023-11-18T03:24:12.028Z,98294.19
2023-11-18T03:25:14.894Z,98295.69
2023-11-18T03:26:17.519Z,98301.72
2023-11-18T03:27:20.140Z,98293.78
2023-11-18T03:28:24.575Z,98308.34
2023-11-18T03:29:27.255Z,98301.16
2023-11-18T03:30:30.279Z,98298.22
2023-11-18T03:31:33.443Z,98300.72
2023-11-18T03:32:37.534Z,98308.72
2023-11-18T03:33:41.022Z,98298.59
2023-11-18T03:34:44.887Z,98299.56
2023-11-18T03:35:47.484Z,98294.78
2023-11-18T03:36:50.193Z,98302.19
2023-11-18T03:37:53.126Z,98294.97
2023-11-18T03:38:55.776Z,98301.16
2023-11-18T03:39:58.552Z,98305.28
2023-11-18T03:41:01.251Z,98302.59
2023-11-18T03:42:04.144Z,98294.78
2023-11-18T03:43:06.765Z,98296.16
2023-11-18T03:44:09.678Z,98301.50
2023-11-18T03:45:12.364Z,98308.22
2023-11-18T03:46:16.727Z,98298.78
2023-11-18T03:47:19.479Z,98302.78
2023-11-18T03:48:22.312Z,98295.56
2023-11-18T03:49:24.967Z,98304.91
2023-11-18T03:50:27.948Z,98315.81
2023-11-18T03:51:30.941Z,98311.03
2023-11-18T03:52:33.609Z,98307.34
2023-11-18T03:53:36.652Z,98311.72
2023-11-18T03:54:39.250Z,98319.72
2023-11-18T03:55:41.876Z,98322.06
2023-11-18T03:56:44.575Z,98323.75
2023-11-18T03:57:47.225Z,98323.75
2023-11-18T03:58:49.903Z,98325.44
2023-11-18T03:59:53.360Z,98318.28
2023-11-18T04:00:56.400Z,98320.81
2023-11-18T04:01:59.285Z,98317.31
2023-11-18T04:03:01.969Z,98330.84
2023-11-18T04:04:05.652Z,98338.25
2023-11-18T04:05:09.726Z,98335.53
2023-11-18T04:06:12.666Z,98337.03
2023-11-18T04:07:15.403Z,98339.72
2023-11-18T04:08:18.616Z,98341.47
2023-11-18T04:09:21.232Z,98334.94
2023-11-18T04:10:23.899Z,98345.91
2023-11-18T04:11:26.731Z,98341.41
2023-11-18T04:12:31.936Z,98341.47
2023-11-18T04:13:34.566Z,98342.59
2023-11-18T04:14:37.734Z,98339.13
2023-11-18T04:15:40.299Z,98341.72
2023-11-18T04:16:43.101Z,98344.63
2023-11-18T04:17:46.055Z,98343.94
2023-11-18T04:18:48.733Z,98340.88
2023-11-18T04:19:51.361Z,98334.06
2023-11-18T04:20:54.007Z,98344.97
2023-11-18T04:21:56.781Z,98340.63
2023-11-18T04:22:59.412Z,98344.97
2023-11-18T04:24:02.174Z,98342.97
2023-11-18T04:25:07.642Z,98344.00
2023-11-18T04:26:10.951Z,98334.59
2023-11-18T04:27:13.661Z,98344.34
2023-11-18T04:28:16.506Z,98343.03
2023-11-18T04:29:19.711Z,98345.94
2023-11-18T04:30:22.431Z,98341.56
2023-11-18T04:31:25.787Z,98346.44
2023-11-18T04:32:28.418Z,98343.75
2023-11-18T04:33:31.058Z,98351.41
2023-11-18T04:34:34.221Z,98344.44
2023-11-18T04:35:37.251Z,98343.75
2023-11-18T04:36:42.993Z,98343.22
2023-11-18T04:37:47.203Z,98337.03
2023-11-18T04:38:50.001Z,98353.88
2023-11-18T04:39:53.138Z,98352.63
2023-11-18T04:40:56.806Z,98358.91
2023-11-18T04:41:59.874Z,98348.53
2023-11-18T04:43:02.542Z,98352.63
2023-11-18T04:44:05.691Z,98360.66
2023-11-18T04:45:10.764Z,98356.75
2023-11-18T04:46:13.514Z,98357.69
2023-11-18T04:47:19.657Z,98355.50
2023-11-18T04:48:23.328Z,98358.31
2023-11-18T04:49:26.297Z,98360.84
2023-11-18T04:50:29.811Z,98363.69
2023-11-18T04:51:32.340Z,98360.84
2023-11-18T04:52:36.154Z,98369.03
2023-11-18T04:53:40.518Z,98360.38
2023-11-18T04:54:43.179Z,98361.72
2023-11-18T04:55:46.040Z,98366.41
2023-11-18T04:56:49.013Z,98366.22
2023-11-18T04:57:51.631Z,98366.41
2023-11-18T04:58:55.362Z,98359.44
2023-11-18T04:59:58.167Z,98365.38
2023-11-18T05:01:00.834Z,98371.03
2023-11-18T05:02:04.456Z,98357.88
2023-11-18T05:03:10.760Z,98365.00
2023-11-18T05:04:13.468Z,98367.44
2023-11-18T05:05:17.824Z,98363.16
2023-11-18T05:06:21.458Z,98365.63
2023-11-18T05:07:24.030Z,98364.66
2023-11-18T05:08:27.079Z,98366.88
2023-11-18T05:09:29.788Z,98367.19
2023-11-18T05:10:32.435Z,98373.75
2023-11-18T05:11:35.891Z,98382.38
2023-11-18T05:12:39.253Z,98383.06
2023-11-18T05:13:41.935Z,98373.75
2023-11-18T05:14:44.615Z,98372.31
2023-11-18T05:15:48.605Z,98377.66
2023-11-18T05:16:51.403Z,98371.13
2023-11-18T05:17:55.400Z,98379.59
2023-11-18T05:18:58.106Z,98380.44
2023-11-18T05:20:01.861Z,98388.47
2023-11-18T05:21:06.680Z,98387.41
2023-11-18T05:22:09.484Z,98377.38
2023-11-18T05:23:13.562Z,98396.91
2023-11-18T05:24:16.966Z,98387.06
2023-11-18T05:25:20.465Z,98389.22
2023-11-18T05:26:23.106Z,98383.47
2023-11-18T05:27:27.756Z,98403.09
2023-11-18T05:28:31.365Z,98401.53
2023-11-18T05:29:34.066Z,98402.38
2023-11-18T05:30:37.598Z,98395.56
2023-11-18T05:31:40.237Z,98395.19
2023-11-18T05:32:42.859Z,98409.41
2023-11-18T05:33:53.179Z,98406.09
2023-11-18T05:34:58.793Z,98396.94
2023-11-18T05:36:01.571Z,98405.44
2023-11-18T05:37:04.348Z,98409.84
2023-11-18T05:38:07.554Z,98406.94
2023-11-18T05:39:13.045Z,98405.34
2023-11-18T05:40:17.004Z,98413.38
2023-11-18T05:41:28.628Z,98414.78
2023-11-18T05:42:32.336Z,98405.69
2023-11-18T05:43:41.078Z,98412.78
2023-11-18T05:44:44.033Z,98408.91
2023-11-18T05:46:06.650Z,98408.28
2023-11-18T05:47:12.887Z,98414.78
2023-11-18T05:48:15.548Z,98415.47
2023-11-18T05:49:19.130Z,98412.47
2023-11-18T05:50:21.969Z,98420.31
2023-11-18T05:51:27.821Z,98418.59
2023-11-18T05:52:30.544Z,98419.22
2023-11-18T05:53:34.549Z,98413.19
2023-11-18T05:54:37.313Z,98421.97
2023-11-18T05:55:39.880Z,98411.53
2023-11-18T05:56:42.627Z,98418.59
2023-11-18T05:57:46.682Z,98424.88
2023-11-18T05:58:49.719Z,98431.19
2023-11-18T05:59:52.287Z,98435.00
2023-11-18T06:00:54.933Z,98431.72
2023-11-18T06:01:58.287Z,98437.75
2023-11-18T06:03:01.771Z,98441.50
2023-11-18T06:04:05.242Z,98446.38
2023-11-18T06:05:09.043Z,98447.88
2023-11-18T06:06:15.150Z,98453.16
2023-11-18T06:07:19.424Z,98456.59
2023-11-18T06:08:24.092Z,98451.47
2023-11-18T06:09:26.955Z,98459.56
2023-11-18T06:10:32.400Z,98453.16
2023-11-18T06:11:36.129Z,98460.44
2023-11-18T06:12:41.344Z,98465.06
2023-11-18T06:13:48.017Z,98468.22
2023-11-18T06:14:52.644Z,98469.94
2023-11-18T06:15:56.684Z,98468.13
2023-11-18T06:17:00.888Z,98476.34
2023-11-18T06:18:06.427Z,98465.25
2023-11-18T06:19:09.352Z,98483.03
2023-11-18T06:20:12.279Z,98471.34
2023-11-18T06:21:19.861Z,98474.06
2023-11-18T06:22:24.277Z,98471.94
2023-11-18T06:23:28.453Z,98478.31
2023-11-18T06:24:31.005Z,98475.28
2023-11-18T06:25:35.796Z,98480.44
2023-11-18T06:26:38.923Z,98482.78
2023-11-18T06:27:41.473Z,98478.50
2023-11-18T06:28:47.960Z,98480.78
2023-11-18T06:29:51.503Z,98473.38
2023-11-18T06:30:54.181Z,98482.78
2023-11-18T06:31:56.898Z,98485.66
2023-11-18T06:32:59.556Z,98488.75
2023-11-18T06:34:03.796Z,98487.06
2023-11-18T06:35:07.286Z,98484.03
2023-11-18T06:36:21.241Z,98488.47
2023-11-18T06:37:23.800Z,98483.41
2023-11-18T06:38:26.660Z,98491.09
2023-11-18T06:39:31.029Z,98497.19
2023-11-18T06:40:34.031Z,98490.75
2023-11-18T06:41:39.304Z,98499.28
2023-11-18T06:42:43.282Z,98505.31
2023-11-18T06:43:57.759Z,98488.91
2023-11-18T06:45:01.479Z,98490.31
2023-11-18T06:46:04.375Z,98495.19
2023-11-18T06:47:07.793Z,98492.66
2023-11-18T06:48:10.699Z,98497.56
2023-11-18T06:49:16.734Z,98487.28
2023-11-18T06:50:25.580Z,98485.06
2023-11-18T06:51:29.334Z,98494.94
2023-11-18T06:52:33.576Z,98495.28
2023-11-18T06:53:36.202Z,98488.31
2023-11-18T06:54:38.991Z,98496.16
2023-11-18T06:55:41.782Z,98492.50
2023-11-18T06:56:45.364Z,98500.53
2023-11-18T06:57:49.025Z,98498.88
2023-11-18T06:58:51.959Z,98506.94
2023-11-18T06:59:54.697Z,98505.59
2023-11-18T07:00:57.674Z,98501.94
2023-11-18T07:02:00.532Z,98517.66
2023-11-18T07:03:03.260Z,98514.88
2023-11-18T07:04:09.901Z,98511.91
2023-11-18T07:05:13.523Z,98510.66
2023-11-18T07:06:27.904Z,98508.94
2023-11-18T07:07:30.664Z,98510.84
2023-11-18T07:08:36.249Z,98502.72
2023-11-18T07:09:38.803Z,98512.94
2023-11-18T07:10:42.309Z,98510.59
2023-11-18T07:11:48.032Z,98522.88
2023-11-18T07:12:50.684Z,98508.94
2023-11-18T07:13:58.088Z,98516.44
2023-11-18T07:15:02.214Z,98513.81
2023-11-18T07:16:06.749Z,98523.94
2023-11-18T07:17:09.800Z,98516.59
2023-11-18T07:18:13.223Z,98526.72
2023-11-18T07:19:21.992Z,98532.31
2023-11-18T07:20:25.238Z,98520.09
2023-11-18T07:21:27.932Z,98528.56
2023-11-18T07:22:30.570Z,98525.75
2023-11-18T07:23:34.273Z,98521.91
2023-11-18T07:24:37.018Z,98527.84
2023-11-18T07:25:39.685Z,98534.16
2023-11-18T07:26:42.541Z,98532.31
2023-11-18T07:27:45.246Z,98538.69
2023-11-18T07:28:48.030Z,98534.25
2023-11-18T07:29:50.745Z,98535.47
2023-11-18T07:30:54.987Z,98537.75
2023-11-18T07:31:57.827Z,98536.94
2023-11-18T07:33:02.499Z,98530.66
2023-11-18T07:34:06.968Z,98536.84
2023-11-18T07:35:10.700Z,98539.66
2023-11-18T07:36:13.384Z,98542.47
2023-11-18T07:37:16.017Z,98547.53
2023-11-18T07:38:21.630Z,98548.06
2023-11-18T07:39:31.140Z,98546.22
2023-11-18T07:40:34.873Z,98557.72
2023-11-18T07:41:37.484Z,98533.81
2023-11-18T07:42:40.124Z,98538.09
2023-11-18T07:43:43.227Z,98544.38
2023-11-18T07:44:45.792Z,98542.19
2023-11-18T07:45:51.590Z,98540.53
2023-11-18T07:46:54.755Z,98540.41
2023-11-18T07:47:57.395Z,98543.50
2023-11-18T07:49:02.973Z,98541.00
2023-11-18T07:50:07.267Z,98541.22
2023-11-18T07:51:09.882Z,98533.56
2023-11-18T07:52:13.001Z,98526.91
2023-11-18T07:53:15.919Z,98542.31
2023-11-18T07:54:19.470Z,98544.78
2023-11-18T07:55:24.478Z,98542.94
2023-11-18T07:56:28.339Z,98534.47
2023-11-18T07:57:30.951Z,98538.81
2023-11-18T07:58:33.565Z,98547.78
2023-11-18T07:59:36.243Z,98539.63
2023-11-18T08:00:46.525Z,98541.94
2023-11-18T08:01:50.030Z,98541.00
2023-11-18T08:02:55.718Z,98544.91
2023-11-18T08:03:58.427Z,98546.13
2023-11-18T08:05:01.356Z,98522.63
2023-11-18T08:06:08.090Z,98529.66
2023-11-18T08:07:11.713Z,98532.47
2023-11-18T08:08:18.201Z,98535.59
2023-11-18T08:09:24.633Z,98536.25
2023-11-18T08:10:29.769Z,98548.31
2023-11-18T08:11:32.442Z,98543.50
2023-11-18T08:12:36.008Z,98539.84
2023-11-18T08:13:38.610Z,98536.94
2023-11-18T08:14:41.206Z,98545.03
2023-11-18T08:15:48.814Z,98534.06
2023-11-18T08:16:52.564Z,98531.06
2023-11-18T08:17:55.978Z,98521.41
2023-11-18T08:18:58.607Z,98518.50
2023-11-18T08:20:01.418Z,98529.66
2023-11-18T08:21:06.276Z,98520.81
2023-11-18T08:22:10.361Z,98518.88
2023-11-18T08:23:13.044Z,98519.34
2023-11-18T08:24:16.036Z,98523.72
2023-11-18T08:25:19.059Z,98529.06
2023-11-18T08:26:21.726Z,98527.31
2023-11-18T08:27:24.397Z,98523.41
2023-11-18T08:28:27.181Z,98522.63
2023-11-18T08:29:33.020Z,98536.13
2023-11-18T08:30:40.586Z,98539.44
2023-11-18T08:31:43.461Z,98524.28
2023-11-18T08:32:47.768Z,98528.72
2023-11-18T08:33:50.450Z,98532.56
2023-11-18T08:34:53.029Z,98539.75
2023-11-18T08:35:55.696Z,98539.84
2023-11-18T08:36:59.772Z,98538.03
2023-11-18T08:38:03.096Z,98535.09
2023-11-18T08:39:06.634Z,98525.44
2023-11-18T08:40:17.432Z,98548.28
2023-11-18T08:41:21.262Z,98536.97
2023-11-18T08:42:25.601Z,98532.66
2023-11-18T08:43:30.009Z,98542.59
2023-11-18T08:44:33.734Z,98544.75
2023-11-18T08:45:37.505Z,98529.94
2023-11-18T08:46:41.060Z,98535.88
2023-11-18T08:47:47.644Z,98522.59
2023-11-18T08:48:50.412Z,98531.22
2023-11-18T08:49:53.063Z,98529.66
2023-11-18T08:50:55.679Z,98527.13
2023-11-18T08:51:59.517Z,98530.09
2023-11-18T08:53:05.539Z,98527.50
2023-11-18T08:54:23.529Z,98522.72
2023-11-18T08:55:43.804Z,98524.22
2023-11-18T08:56:47.505Z,98518.31
2023-11-18T08:58:00.851Z,98510.94
2023-11-18T08:59:03.642Z,98514.41
2023-11-18T09:00:27.269Z,98521.78
2023-11-18T09:01:29.880Z,98503.38
2023-11-18T09:02:49.703Z,98511.53
2023-11-18T09:03:58.352Z,98508.34
2023-11-18T09:05:01.017Z,98512.31
2023-11-18T09:06:13.329Z,98510.97
2023-11-18T09:07:16.345Z,98523.19
2023-11-18T09:08:20.884Z,98508.59
2023-11-18T09:09:30.364Z,98520.19
2023-11-18T09:10:35.017Z,98513.34
2023-11-18T09:11:40.249Z,98525.13
2023-11-18T09:12:46.405Z,98525.00
2023-11-18T09:13:54.758Z,98524.22
2023-11-18T09:14:58.528Z,98531.56
2023-11-18T09:16:03.970Z,98520.66
2023-11-18T09:17:08.061Z,98527.50
2023-11-18T09:18:11.613Z,98526.09
2023-11-18T09:19:15.755Z,98537.44
2023-11-18T09:20:21.767Z,98531.59
2023-11-18T09:21:26.771Z,98537.66
2023-11-18T09:22:29.460Z,98533.16
2023-11-18T09:23:35.771Z,98535.94
2023-11-18T09:24:38.574Z,98531.25
2023-11-18T09:25:41.709Z,98536.31
2023-11-18T09:26:45.496Z,98528.03
2023-11-18T09:27:48.110Z,98532.41
2023-11-18T09:28:53.927Z,98533.91
2023-11-18T09:29:56.988Z,98527.94
2023-11-18T09:30:59.706Z,98532.44
2023-11-18T09:32:07.309Z,98535.19
2023-11-18T09:33:15.301Z,98547.22
2023-11-18T09:34:18.156Z,98505.56
2023-11-18T09:35:21.738Z,98517.91
2023-11-18T09:36:24.479Z,98513.22
2023-11-18T09:37:27.105Z,98509.28
2023-11-18T09:38:36.669Z,98518.31
2023-11-18T09:39:40.001Z,98518.09
2023-11-18T09:40:47.559Z,98505.94
2023-11-18T09:41:50.641Z,98517.91
2023-11-18T09:42:54.263Z,98529.59
2023-11-18T09:44:00.028Z,98519.38
2023-11-18T09:45:06.745Z,98513.19
2023-11-18T09:46:14.735Z,98504.59
2023-11-18T09:47:26.212Z,98510.47
2023-11-18T09:48:29.121Z,98502.59
2023-11-18T09:49:46.046Z,98511.91
2023-11-18T09:50:51.681Z,98506.34
2023-11-18T09:51:59.468Z,98507.53
2023-11-18T09:53:12.519Z,98518.19
2023-11-18T09:54:30.362Z,98500.09
2023-11-18T09:56:11.126Z,98505.56
2023-11-18T09:57:30.910Z,98513.41
2023-11-18T09:58:45.036Z,98505.28
2023-11-18T10:00:23.040Z,98497.38
2023-11-18T10:01:29.523Z,98500.47
2023-11-18T10:02:34.699Z,98519.38
2023-11-18T10:03:39.508Z,98502.19
2023-11-18T10:04:43.274Z,98493.13
2023-11-18T10:05:48.136Z,98489.28
2023-11-18T10:06:54.945Z,98476.38
2023-11-18T10:08:00.602Z,98485.66
2023-11-18T10:09:16.660Z,98488.94
2023-11-18T10:10:22.037Z,98474.28
2023-11-18T10:11:24.922Z,98478.69
2023-11-18T10:12:28.101Z,98477.03
2023-11-18T10:13:31.682Z,98480.66
2023-11-18T10:14:40.881Z,98483.22
2023-11-18T10:15:43.470Z,98478.72
2023-11-18T10:16:48.151Z,98482.03
2023-11-18T10:18:08.461Z,98484.75
2023-11-18T10:19:13.482Z,98475.78
2023-11-18T10:20:17.396Z,98482.59
2023-11-18T10:21:40.943Z,98475.94
2023-11-18T10:22:43.831Z,98460.00
2023-11-18T10:24:06.507Z,98453.03
2023-11-18T10:25:09.181Z,98469.09
2023-11-18T10:26:11.798Z,98475.81
2023-11-18T10:27:16.480Z,98473.59
2023-11-18T10:28:30.267Z,98460.34
2023-11-18T10:29:33.354Z,98467.59
2023-11-18T10:30:48.165Z,98472.88
2023-11-18T10:32:02.872Z,98470.16
2023-11-18T10:33:09.028Z,98471.31
2023-11-18T10:34:16.824Z,98468.56
2023-11-18T10:35:21.889Z,98464.03
2023-11-18T10:36:25.601Z,98466.97
2023-11-18T10:37:32.876Z,98458.97
2023-11-18T10:38:47.830Z,98457.97
2023-11-18T10:39:53.891Z,98452.66
2023-11-18T10:40:59.324Z,98453.06
2023-11-18T10:42:04.004Z,98443.25
2023-11-18T10:43:10.919Z,98451.28
2023-11-18T10:44:16.929Z,98439.56
2023-11-18T10:45:28.643Z,98447.78
2023-11-18T10:46:33.471Z,98464.44
2023-11-18T10:47:44.970Z,98443.66
2023-11-18T10:48:51.980Z,98449.38
2023-11-18T10:49:59.678Z,98451.72
2023-11-18T10:51:02.500Z,98459.34
2023-11-18T10:52:09.384Z,98454.84
2023-11-18T10:53:14.869Z,98440.97
2023-11-18T10:54:20.477Z,98442.13
2023-11-18T10:55:23.380Z,98451.34
2023-11-18T10:56:30.536Z,98444.88
2023-11-18T10:57:35.346Z,98454.28
2023-11-18T10:58:42.242Z,98448.59
2023-11-18T11:00:14.469Z,98448.78
2023-11-18T11:01:44.120Z,98462.06
2023-11-18T11:02:51.468Z,98449.56
2023-11-18T11:03:57.579Z,98452.13
2023-11-18T11:05:00.287Z,98464.06
2023-11-18T11:06:18.966Z,98457.22
2023-11-18T11:07:25.006Z,98465.03
2023-11-18T11:08:35.984Z,98463.06
2023-11-18T11:09:47.237Z,98444.28
2023-11-18T11:10:51.141Z,98451.53
2023-11-18T11:12:06.305Z,98457.38
2023-11-18T11:13:10.346Z,98462.47
2023-11-18T11:14:15.554Z,98445.22
2023-11-18T11:15:23.933Z,98456.91
2023-11-18T11:16:44.652Z,98452.78
2023-11-18T11:17:56.745Z,98449.25
2023-11-18T11:19:10.080Z,98457.06
2023-11-18T11:20:25.578Z,98451.22
2023-11-18T11:21:31.070Z,98452.41
2023-11-18T11:23:21.124Z,98452.78
2023-11-18T11:24:47.995Z,98460.13
2023-11-18T11:26:15.158Z,98454.44
2023-11-18T11:27:40.240Z,98449.34
2023-11-18T11:29:09.280Z,98443.75
2023-11-18T11:30:23.720Z,98453.97
2023-11-18T11:31:41.588Z,98450.44
2023-11-18T11:33:01.557Z,98445.00
2023-11-18T11:34:15.842Z,98449.91
2023-11-18T11:35:26.094Z,98444.22
2023-11-18T11:36:40.498Z,98462.63
2023-11-18T11:37:44.976Z,98453.22
2023-11-18T11:38:48.785Z,98462.06
2023-11-18T11:39:55.153Z,98469.72
2023-11-18T11:41:06.335Z,98464.66
2023-11-18T11:42:10.611Z,98454.25
2023-11-18T11:43:17.070Z,98449.75
2023-11-18T11:44:23.050Z,98452.13
2023-11-18T11:45:29.844Z,98462.91
2023-11-18T11:46:38.546Z,98462.28
2023-11-18T11:47:47.705Z,98458.75
2023-11-18T11:48:56.501Z,98464.78
2023-11-18T11:50:33.366Z,98460.69
2023-11-18T11:51:49.878Z,98457.53
2023-11-18T11:53:00.734Z,98465.31
2023-11-18T11:54:16.670Z,98481.72
2023-11-18T11:55:34.632Z,98463.56
2023-11-18T11:56:48.379Z,98469.22
2023-11-18T11:57:59.968Z,98482.97
2023-11-18T11:59:04.131Z,98474.78
2023-11-18T12:00:17.680Z,98471.44
2023-11-18T12:01:34.720Z,98470.47
2023-11-18T12:02:37.601Z,98469.94
2023-11-18T12:03:46.089Z,98480.09
2023-11-18T12:04:53.778Z,98469.53
2023-11-18T12:05:57.563Z,98478.75
2023-11-18T12:07:12.324Z,98478.75
2023-11-18T12:08:19.882Z,98477.38
2023-11-18T12:09:22.953Z,98479.50
2023-11-18T12:10:32.698Z,98485.72
2023-11-18T12:11:47.470Z,98479.81
2023-11-18T12:12:50.253Z,98488.41
2023-11-18T12:14:25.524Z,98478.41
2023-11-18T12:16:05.317Z,98481.19
2023-11-18T12:17:15.282Z,98491.59
2023-11-18T12:18:19.004Z,98489.78
2023-11-18T12:19:58.161Z,98501.38
2023-11-18T12:21:04.897Z,98495.94
2023-11-18T12:22:14.306Z,98498.69
2023-11-18T12:23:19.033Z,98497.72
2023-11-18T12:24:23.665Z,98499.09
2023-11-18T12:25:28.555Z,98514.31
2023-11-18T12:26:41.438Z,98487.09
2023-11-18T12:27:52.819Z,98490.03
2023-11-18T12:28:56.978Z,98495.50
2023-11-18T12:29:59.794Z,98488.66
2023-11-18T12:31:08.124Z,98496.28
2023-11-18T12:32:18.060Z,98499.00
2023-11-18T12:33:24.329Z,98495.28
2023-11-18T12:34:55.197Z,98494.53
2023-11-18T12:36:19.408Z,98492.16
2023-11-18T12:37:43.493Z,98497.59
2023-11-18T12:39:39.012Z,98480.00
2023-11-18T12:41:01.353Z,98496.91
2023-11-18T12:42:21.372Z,98500.50
2023-11-18T12:44:19.187Z,98494.88
2023-11-18T12:45:56.665Z,98501.66
2023-11-18T12:47:11.030Z,98504.59
2023-11-18T12:48:16.487Z,98510.66
2023-11-18T12:49:27.100Z,98501.28
2023-11-18T12:50:33.440Z,98509.84
2023-11-18T12:51:37.988Z,98504.94
2023-11-18T12:52:43.435Z,98505.56
2023-11-18T12:53:51.534Z,98509.25
2023-11-18T12:54:59.779Z,98500.13
2023-11-18T12:56:03.261Z,98507.56